Summit Lake, Canada
Current Conditions -  °F | °C
As of 9:00 AM on Friday 19 Dec 2014 (Local Time) from CYXS Reporting Station
Clear Clear  
Wind Chill: 26°   Ceiling: Unl
Heat Index: 36°   Visibility: 9mi
Dew Point: 32°   Wind: 16mph
Humidity: 87%   Direction: 180°S
Pressure: 29.56"   Gusts: 23mph
Location:  54.28°N, 122.63°W
Report Text: CYXS 191700Z AUTO 18014G20KT 9SM CLR 02/M00 A2956 RMK SLP039
Loading
Personal Weather Stations






























Interactive Weather Map New forecast layout! Learn more

10-Day Weather Forecast

Advertisements
Track Severe Weather on mobile